Time;durP1;ratioP1;P1;durP2;ratioP2;P2;SDS_P1;SDS_P2;PMS_P1;PMS_P2;Temp;Humidity;BMP_temperature;BMP_pressure;BME280_temperature;BME280_humidity;BME280_pressure;Samples;Min_cycle;Max_cycle;Signal;HPM_P1;HPM_P2
2022/03/16 00:01:13;;;;;;;52.33;30.45;;;3.90;99.90;;;;;;5012055;28;20058;-64
2022/03/16 00:03:38;;;;;;;50.47;31.83;;;3.70;99.90;;;;;;5012004;28;20360;-64
2022/03/16 00:06:04;;;;;;;52.10;29.73;;;3.80;99.90;;;;;;5029253;28;20065;-64
2022/03/16 00:08:31;;;;;;;61.00;32.83;;;3.70;99.90;;;;;;4996501;28;20050;-65
2022/03/16 00:10:58;;;;;;;62.88;33.40;;;3.70;99.90;;;;;;5012514;28;20352;-65
2022/03/16 00:13:24;;;;;;;62.33;35.20;;;3.60;99.90;;;;;;5012413;28;20109;-65
2022/03/16 00:15:49;;;;;;;66.72;33.25;;;3.60;99.90;;;;;;5011173;28;20058;-64
2022/03/16 00:18:15;;;;;;;62.38;33.88;;;3.60;99.90;;;;;;4994405;28;20125;-65
2022/03/16 00:20:40;;;;;;;63.80;34.05;;;3.60;99.90;;;;;;5010549;28;20042;-65
2022/03/16 00:23:06;;;;;;;57.25;31.85;;;3.60;99.90;;;;;;5010255;28;20107;-64
2022/03/16 00:25:32;;;;;;;62.40;32.55;;;3.60;99.90;;;;;;4994716;28;20050;-63
2022/03/16 00:27:57;;;;;;;69.00;34.97;;;3.60;99.90;;;;;;5011684;28;20077;-63
2022/03/16 00:30:23;;;;;;;67.18;34.55;;;3.60;99.90;;;;;;5011239;28;20471;-64
2022/03/16 00:32:48;;;;;;;68.00;33.97;;;3.70;99.90;;;;;;5007835;28;20053;-64
2022/03/16 00:35:14;;;;;;;60.05;33.08;;;3.80;99.90;;;;;;5000669;28;20133;-65
2022/03/16 00:37:39;;;;;;;55.88;31.60;;;3.70;99.90;;;;;;5007342;28;20140;-64
2022/03/16 00:40:06;;;;;;;54.25;31.48;;;3.70;99.90;;;;;;5012165;28;20053;-64
2022/03/16 00:42:31;;;;;;;60.85;32.63;;;3.60;99.90;;;;;;5011167;28;20510;-64
2022/03/16 00:44:57;;;;;;;62.35;32.10;;;3.50;99.90;;;;;;5012073;28;20054;-63
2022/03/16 00:47:22;;;;;;;54.25;31.20;;;3.60;99.90;;;;;;5012075;28;20501;-65
2022/03/16 00:49:48;;;;;;;55.25;30.20;;;3.50;99.90;;;;;;5010903;28;20058;-66
2022/03/16 00:52:14;;;;;;;53.83;30.77;;;3.50;99.90;;;;;;5010337;28;20132;-64
2022/03/16 00:54:39;;;;;;;50.58;29.23;;;3.40;99.90;;;;;;5011577;28;20049;-64
2022/03/16 00:57:05;;;;;;;52.92;28.58;;;3.40;99.90;;;;;;4995054;28;20073;-64
2022/03/16 00:59:31;;;;;;;58.45;30.67;;;3.30;99.90;;;;;;5011892;28;20119;-65
2022/03/16 01:01:57;;;;;;;58.00;32.13;;;3.30;99.90;;;;;;5008793;28;20359;-65
2022/03/16 01:04:23;;;;;;;59.10;30.77;;;3.30;99.90;;;;;;4997391;28;20049;-64
2022/03/16 01:06:49;;;;;;;59.45;31.70;;;3.30;99.90;;;;;;5011715;28;20073;-66
2022/03/16 01:09:15;;;;;;;61.10;32.00;;;3.20;99.90;;;;;;5011926;28;20057;-64
2022/03/16 01:11:40;;;;;;;65.03;32.28;;;3.20;99.90;;;;;;5011333;28;20561;-65
2022/03/16 01:14:06;;;;;;;65.50;32.25;;;3.20;99.90;;;;;;5012443;28;20527;-65
2022/03/16 01:16:35;;;;;;;61.00;32.28;;;3.20;99.90;;;;;;5012205;28;20118;-64
2022/03/16 01:19:00;;;;;;;60.38;32.38;;;3.20;99.90;;;;;;5000238;28;20133;-66
2022/03/16 01:21:27;;;;;;;63.88;32.17;;;3.20;99.90;;;;;;5011503;28;20125;-64
2022/03/16 01:23:53;;;;;;;59.88;31.42;;;3.20;99.90;;;;;;5008945;28;20062;-65
2022/03/16 01:26:18;;;;;;;59.22;30.10;;;3.20;99.90;;;;;;5009256;28;20054;-64
2022/03/16 01:28:44;;;;;;;58.30;29.02;;;3.20;99.90;;;;;;5010328;28;20049;-64
2022/03/16 01:31:09;;;;;;;52.10;28.95;;;3.20;99.90;;;;;;5012375;28;20096;-63
2022/03/16 01:33:35;;;;;;;56.42;29.67;;;3.10;99.90;;;;;;5012088;28;20046;-66
2022/03/16 01:36:00;;;;;;;56.80;30.67;;;3.10;99.90;;;;;;5011475;28;20053;-65
2022/03/16 01:38:26;;;;;;;54.28;29.15;;;3.10;99.90;;;;;;5010979;28;20054;-64
2022/03/16 01:40:52;;;;;;;56.70;30.35;;;3.10;99.90;;;;;;5014914;28;20616;-64
2022/03/16 01:43:18;;;;;;;53.53;30.08;;;3.10;99.90;;;;;;5014477;28;20435;-65
2022/03/16 01:45:50;;;;;;;67.50;33.20;;;3.10;99.90;;;;;;5010991;28;20108;-63
2022/03/16 01:48:17;;;;;;;72.57;34.03;;;3.10;99.90;;;;;;5015029;28;20084;-64
2022/03/16 01:50:43;;;;;;;61.80;31.88;;;3.20;99.90;;;;;;5014414;28;20085;-64
2022/03/16 01:53:10;;;;;;;73.03;34.13;;;3.30;99.90;;;;;;5014744;28;20153;-64
2022/03/16 01:55:37;;;;;;;87.72;37.47;;;3.30;99.90;;;;;;5015054;28;20077;-64
2022/03/16 01:58:02;;;;;;;76.95;35.08;;;3.40;99.90;;;;;;5014044;28;20053;-65
2022/03/16 02:00:28;;;;;;;72.07;34.30;;;3.40;99.90;;;;;;5014841;28;20049;-64
2022/03/16 02:02:53;;;;;;;60.95;31.60;;;3.40;99.90;;;;;;5012105;28;20077;-65
2022/03/16 02:05:19;;;;;;;73.53;34.08;;;3.30;99.90;;;;;;5007524;28;20052;-63
2022/03/16 02:07:45;;;;;;;65.13;32.88;;;3.30;99.90;;;;;;5014931;28;20054;-65
2022/03/16 02:10:11;;;;;;;65.90;32.72;;;3.30;99.90;;;;;;5014517;28;20050;-63
2022/03/16 02:12:47;;;;;;;79.63;36.20;;;3.30;99.90;;;;;;5014793;28;20045;-65
2022/03/16 02:15:13;;;;;;;79.10;35.63;;;3.40;99.90;;;;;;5014529;28;20074;-65
2022/03/16 02:17:39;;;;;;;66.90;33.88;;;3.40;99.90;;;;;;4997478;28;20418;-64
2022/03/16 02:20:06;;;;;;;69.32;33.83;;;3.40;99.90;;;;;;5014382;28;20078;-63
2022/03/16 02:22:36;;;;;;;72.57;35.50;;;3.30;99.90;;;;;;5014440;28;20054;-64
2022/03/16 02:25:07;;;;;;;70.25;33.28;;;3.40;99.90;;;;;;5015675;28;20068;-64
2022/03/16 02:27:32;;;;;;;73.05;36.58;;;3.30;99.90;;;;;;5013578;28;20082;-64
2022/03/16 02:29:58;;;;;;;76.72;36.45;;;3.30;99.90;;;;;;5012598;28;20081;-63
2022/03/16 02:32:23;;;;;;;77.65;35.15;;;3.30;99.90;;;;;;5014275;28;20054;-63
2022/03/16 02:34:49;;;;;;;68.80;34.90;;;3.30;99.90;;;;;;5015184;28;20046;-64
2022/03/16 02:37:15;;;;;;;77.00;38.25;;;3.30;99.90;;;;;;5014534;28;20112;-65
2022/03/16 02:39:41;;;;;;;65.32;34.47;;;3.30;99.90;;;;;;5014575;28;20133;-63
2022/03/16 02:42:07;;;;;;;59.55;32.20;;;3.20;99.90;;;;;;5013556;28;20137;-64
2022/03/16 02:44:32;;;;;;;55.03;31.15;;;3.20;99.90;;;;;;5015455;28;20050;-66
2022/03/16 02:46:58;;;;;;;51.38;28.92;;;3.10;99.90;;;;;;5014248;28;20069;-63
2022/03/16 02:49:23;;;;;;;54.40;30.17;;;3.00;99.90;;;;;;4997778;28;20050;-62
2022/03/16 02:51:49;;;;;;;55.03;28.58;;;2.90;99.90;;;;;;5012736;28;20394;-64
2022/03/16 02:54:15;;;;;;;50.15;28.27;;;2.90;99.90;;;;;;5010223;28;20046;-65
2022/03/16 02:56:40;;;;;;;57.28;30.98;;;2.90;99.90;;;;;;4993733;28;20446;-65
2022/03/16 02:59:06;;;;;;;55.88;29.13;;;2.80;99.90;;;;;;5011553;28;20045;-63
2022/03/16 03:01:31;;;;;;;54.58;29.75;;;2.80;99.90;;;;;;5013766;28;20132;-63
2022/03/16 03:03:57;;;;;;;49.10;26.27;;;2.70;99.90;;;;;;5014023;28;20438;-64
2022/03/16 03:06:23;;;;;;;51.00;28.63;;;2.70;99.90;;;;;;5013755;28;20495;-64
2022/03/16 03:08:48;;;;;;;47.78;26.40;;;2.70;99.90;;;;;;5010437;28;20132;-64
2022/03/16 03:11:14;;;;;;;50.95;28.48;;;2.60;99.90;;;;;;4995075;28;20467;-63
2022/03/16 03:13:40;;;;;;;58.25;30.17;;;2.60;99.90;;;;;;5013681;28;20042;-64
2022/03/16 03:16:06;;;;;;;58.47;30.90;;;2.60;99.90;;;;;;5014080;28;20111;-65
2022/03/16 03:18:34;;;;;;;65.90;30.77;;;2.60;99.90;;;;;;5012501;28;20050;-64
2022/03/16 03:20:59;;;;;;;57.28;28.60;;;2.70;99.90;;;;;;5011933;28;20367;-64
2022/03/16 03:23:25;;;;;;;57.47;29.55;;;2.70;99.90;;;;;;5008853;28;20050;-65
2022/03/16 03:25:50;;;;;;;60.10;28.35;;;2.80;99.90;;;;;;5002831;28;20049;-64
2022/03/16 03:28:16;;;;;;;59.65;29.95;;;2.70;99.90;;;;;;5012207;28;20053;-64
2022/03/16 03:30:42;;;;;;;53.72;27.83;;;2.70;99.90;;;;;;5013121;28;20063;-64
2022/03/16 03:33:07;;;;;;;65.07;31.33;;;2.70;99.90;;;;;;5014065;28;20054;-63
2022/03/16 03:35:33;;;;;;;54.78;27.73;;;2.70;99.90;;;;;;5012181;28;20050;-65
2022/03/16 03:37:58;;;;;;;53.95;27.80;;;2.60;99.90;;;;;;5012429;28;20061;-63
2022/03/16 03:40:24;;;;;;;48.75;26.33;;;2.60;99.90;;;;;;5012849;28;20054;-65
2022/03/16 03:42:51;;;;;;;40.15;23.45;;;2.50;99.90;;;;;;5012288;28;20137;-64
2022/03/16 03:45:17;;;;;;;39.05;23.35;;;2.50;99.90;;;;;;5013087;28;20402;-63
2022/03/16 03:47:42;;;;;;;44.03;22.58;;;2.40;99.90;;;;;;5013168;28;20083;-64
2022/03/16 03:50:09;;;;;;;40.17;22.67;;;2.40;99.90;;;;;;5012219;28;20077;-65
2022/03/16 03:52:34;;;;;;;31.80;21.27;;;2.40;99.90;;;;;;5005207;28;20050;-65
2022/03/16 03:55:00;;;;;;;34.88;21.08;;;2.30;99.90;;;;;;5001915;28;20482;-64
2022/03/16 03:57:26;;;;;;;36.13;21.88;;;2.30;99.90;;;;;;5012340;28;20053;-64
2022/03/16 03:59:51;;;;;;;42.17;21.77;;;2.30;99.90;;;;;;4996401;28;20097;-63
2022/03/16 04:02:17;;;;;;;40.17;20.50;;;2.20;99.90;;;;;;5012410;28;20124;-64
2022/03/16 04:04:42;;;;;;;40.08;22.88;;;2.20;99.90;;;;;;5011797;28;20107;-64
2022/03/16 04:07:08;;;;;;;49.45;24.95;;;2.20;99.90;;;;;;5011575;28;20544;-64
2022/03/16 04:09:33;;;;;;;48.53;26.35;;;2.20;99.90;;;;;;5012028;28;20046;-64
2022/03/16 04:11:59;;;;;;;41.50;23.80;;;2.20;99.90;;;;;;5012251;28;20105;-63
2022/03/16 04:14:25;;;;;;;46.63;24.27;;;2.20;99.90;;;;;;5013513;28;20398;-62
2022/03/16 04:16:50;;;;;;;39.65;22.08;;;2.20;99.90;;;;;;5003989;28;20055;-64
2022/03/16 04:19:16;;;;;;;39.78;23.17;;;2.20;99.90;;;;;;5005931;28;20062;-63
2022/03/16 04:21:42;;;;;;;42.28;24.55;;;2.20;99.90;;;;;;5014004;28;20073;-64
2022/03/16 04:24:08;;;;;;;37.70;22.02;;;2.20;99.90;;;;;;5013583;28;20057;-64
2022/03/16 04:26:34;;;;;;;38.78;23.35;;;2.10;99.90;;;;;;5011213;28;20580;-64
2022/03/16 04:28:59;;;;;;;36.75;21.10;;;2.10;99.90;;;;;;5011085;28;20058;-63
2022/03/16 04:31:25;;;;;;;38.45;22.23;;;2.10;99.90;;;;;;5012443;28;20041;-64
2022/03/16 04:33:52;;;;;;;38.08;23.25;;;2.10;99.90;;;;;;4995836;28;20127;-64
2022/03/16 04:36:17;;;;;;;38.38;22.08;;;2.00;99.90;;;;;;5011791;28;20048;-64
2022/03/16 04:38:43;;;;;;;46.67;25.27;;;2.10;99.90;;;;;;5012487;28;20465;-64
2022/03/16 04:41:08;;;;;;;37.55;23.50;;;2.00;99.90;;;;;;5011944;28;20104;-64
2022/03/16 04:43:34;;;;;;;45.63;25.58;;;2.00;99.90;;;;;;5010916;28;20442;-63
2022/03/16 04:46:00;;;;;;;38.67;23.90;;;2.00;99.90;;;;;;5012016;28;20394;-65
2022/03/16 04:48:25;;;;;;;38.53;23.17;;;2.00;99.90;;;;;;4995562;28;20088;-65
2022/03/16 04:50:51;;;;;;;41.22;23.75;;;2.00;99.90;;;;;;5011760;28;20053;-64
2022/03/16 04:53:16;;;;;;;44.08;24.70;;;1.90;99.90;;;;;;5012018;28;20121;-64
2022/03/16 04:55:42;;;;;;;45.20;24.90;;;2.00;99.90;;;;;;5000641;28;20050;-63
2022/03/16 04:58:08;;;;;;;48.38;26.48;;;2.00;99.90;;;;;;5002004;28;20041;-64
2022/03/16 05:00:35;;;;;;;48.97;26.48;;;2.00;99.90;;;;;;5003846;28;20053;-64
2022/03/16 05:03:02;;;;;;;48.33;26.92;;;1.90;99.90;;;;;;5002861;28;20071;-64
2022/03/16 05:05:28;;;;;;;48.42;26.27;;;2.00;99.90;;;;;;5000748;28;20402;-64
2022/03/16 05:07:54;;;;;;;50.53;26.13;;;2.00;99.90;;;;;;5011846;28;20537;-63
2022/03/16 05:10:20;;;;;;;46.63;25.40;;;2.00;99.90;;;;;;5011737;28;20052;-63
2022/03/16 05:12:45;;;;;;;60.38;27.55;;;2.00;99.90;;;;;;5006209;28;20113;-64
2022/03/16 05:15:16;;;;;;;47.05;25.67;;;2.00;99.90;;;;;;5009742;28;20050;-64
2022/03/16 05:17:42;;;;;;;54.28;27.70;;;2.00;99.90;;;;;;5010551;28;20454;-63
2022/03/16 05:20:08;;;;;;;51.53;26.85;;;2.00;99.90;;;;;;5011320;28;20145;-63
2022/03/16 05:22:44;;;;;;;52.30;28.40;;;2.00;99.90;;;;;;5007190;28;20045;-63
2022/03/16 05:25:12;;;;;;;51.45;27.05;;;2.00;99.90;;;;;;5013088;28;20100;-63
2022/03/16 05:27:38;;;;;;;56.88;28.80;;;2.00;99.90;;;;;;5011048;28;20104;-63
2022/03/16 05:30:06;;;;;;;53.28;28.30;;;2.00;99.90;;;;;;5011907;28;20081;-63
2022/03/16 05:32:32;;;;;;;51.67;29.27;;;2.00;99.90;;;;;;5011384;28;20081;-64
2022/03/16 05:34:57;;;;;;;66.15;30.48;;;2.10;99.90;;;;;;5007242;28;20050;-62
2022/03/16 05:37:23;;;;;;;60.60;28.85;;;2.20;99.90;;;;;;4991661;28;20051;-63
2022/03/16 05:39:48;;;;;;;62.63;29.95;;;2.20;99.90;;;;;;4991626;28;20141;-65
2022/03/16 05:42:14;;;;;;;65.90;31.42;;;2.30;99.90;;;;;;4994857;28;20049;-64
2022/03/16 05:44:39;;;;;;;59.95;31.25;;;2.40;99.90;;;;;;5002204;28;20046;-63
2022/03/16 05:47:05;;;;;;;49.88;27.77;;;2.30;99.90;;;;;;4998966;28;20046;-63
2022/03/16 05:49:31;;;;;;;63.90;30.88;;;2.30;99.90;;;;;;4992197;28;20058;-64
2022/03/16 05:51:56;;;;;;;54.80;29.35;;;2.30;99.90;;;;;;4992047;28;20047;-64
2022/03/16 05:54:22;;;;;;;57.50;30.95;;;2.30;99.90;;;;;;4991629;28;20129;-64
2022/03/16 05:56:47;;;;;;;53.75;28.40;;;2.30;99.90;;;;;;5000538;28;20057;-63
2022/03/16 05:59:13;;;;;;;46.55;26.77;;;2.30;99.90;;;;;;5000603;28;20050;-63
2022/03/16 06:01:38;;;;;;;45.40;27.73;;;2.30;99.90;;;;;;5004118;28;20050;-64
2022/03/16 06:04:04;;;;;;;49.53;27.83;;;2.30;99.90;;;;;;5047116;23;20057;-64
2022/03/16 06:06:31;;;;;;;54.88;28.33;;;2.30;99.90;;;;;;4979444;28;20113;-64
2022/03/16 06:08:57;;;;;;;51.85;29.27;;;2.30;99.90;;;;;;4980816;28;20086;-64
2022/03/16 06:11:24;;;;;;;51.35;28.65;;;2.40;99.90;;;;;;4972144;28;20050;-64
2022/03/16 06:13:50;;;;;;;56.35;30.23;;;2.50;99.90;;;;;;4974068;28;20050;-64
2022/03/16 06:16:15;;;;;;;56.90;30.35;;;2.50;99.90;;;;;;4972211;28;20074;-64
2022/03/16 06:18:41;;;;;;;63.13;32.15;;;2.60;99.90;;;;;;4975208;28;20051;-65
2022/03/16 06:21:06;;;;;;;65.80;35.75;;;2.60;99.90;;;;;;4972429;28;20502;-65
2022/03/16 06:23:32;;;;;;;59.20;31.95;;;2.70;99.90;;;;;;4973277;28;20134;-64
2022/03/16 06:25:58;;;;;;;51.35;30.23;;;2.80;99.90;;;;;;4991043;28;20078;-64
2022/03/16 06:28:23;;;;;;;56.20;31.23;;;2.90;99.90;;;;;;4991012;28;20038;-64
2022/03/16 06:30:49;;;;;;;57.20;32.38;;;2.90;99.90;;;;;;4991741;28;20133;-63
2022/03/16 06:33:14;;;;;;;58.13;33.15;;;2.90;99.90;;;;;;4975267;28;20482;-64
2022/03/16 06:35:40;;;;;;;57.15;30.55;;;3.00;99.90;;;;;;4975833;28;20038;-64
2022/03/16 06:38:05;;;;;;;52.90;28.77;;;3.10;99.90;;;;;;4978796;28;20075;-64
2022/03/16 06:40:31;;;;;;;57.95;32.13;;;3.20;99.90;;;;;;4972401;28;20062;-64
2022/03/16 06:42:58;;;;;;;58.63;31.00;;;3.20;99.90;;;;;;4956662;28;20047;-64
2022/03/16 06:45:27;;;;;;;59.97;33.20;;;3.30;99.90;;;;;;4971180;28;20054;-64
2022/03/16 06:47:57;;;;;;;56.83;33.45;;;3.40;99.90;;;;;;4976123;28;20051;-65
2022/03/16 06:50:24;;;;;;;69.45;36.08;;;3.50;99.90;;;;;;4969975;28;20042;-63
2022/03/16 06:52:50;;;;;;;68.28;35.47;;;3.50;99.90;;;;;;4971722;28;20186;-64
2022/03/16 06:55:16;;;;;;;67.68;37.33;;;3.70;99.90;;;;;;4955999;29;20143;-64
2022/03/16 06:57:41;;;;;;;62.88;36.55;;;3.80;99.90;;;;;;4971775;28;20047;-65
2022/03/16 07:00:09;;;;;;;70.13;39.08;;;3.80;99.90;;;;;;4961216;28;20126;-64
2022/03/16 07:02:57;;;;;;;77.25;39.17;;;4.00;99.90;;;;;;4976610;28;20458;-63
2022/03/16 07:05:31;;;;;;;72.50;38.47;;;4.10;99.90;;;;;;4976415;28;20145;-64
2022/03/16 07:08:02;;;;;;;72.40;41.17;;;4.20;99.90;;;;;;4968416;28;20055;-63
2022/03/16 07:10:29;;;;;;;76.15;40.83;;;4.20;99.90;;;;;;4975039;28;20109;-63
2022/03/16 07:12:54;;;;;;;72.00;40.15;;;4.30;99.90;;;;;;4975915;28;20063;-64
2022/03/16 07:15:20;;;;;;;65.60;36.25;;;4.40;99.90;;;;;;4981578;28;20051;-64
2022/03/16 07:17:47;;;;;;;69.97;38.10;;;4.50;99.90;;;;;;4971650;28;20063;-64
2022/03/16 07:20:13;;;;;;;63.00;36.80;;;4.60;99.90;;;;;;4971409;28;20055;-63
2022/03/16 07:22:39;;;;;;;64.63;36.97;;;4.70;99.90;;;;;;4955384;28;20122;-64
2022/03/16 07:25:09;;;;;;;59.40;36.15;;;4.80;99.90;;;;;;4973999;28;20116;-65
2022/03/16 07:27:36;;;;;;;59.47;36.72;;;4.80;99.90;;;;;;4973832;28;20051;-63
2022/03/16 07:30:04;;;;;;;59.63;36.67;;;5.00;99.90;;;;;;4975476;28;20446;-65
2022/03/16 07:32:29;;;;;;;57.47;36.00;;;5.00;99.90;;;;;;4974952;28;20348;-63
2022/03/16 07:34:55;;;;;;;52.15;35.35;;;5.10;99.90;;;;;;4990233;28;20062;-63
2022/03/16 07:37:22;;;;;;;56.33;35.88;;;5.20;99.90;;;;;;4973136;28;20351;-64
2022/03/16 07:39:48;;;;;;;56.75;34.72;;;5.30;99.90;;;;;;4991024;28;20050;-64
2022/03/16 07:42:14;;;;;;;55.10;35.22;;;5.50;99.90;;;;;;4988101;28;20380;-65
2022/03/16 07:44:40;;;;;;;49.35;32.80;;;5.60;99.90;;;;;;4990634;28;20055;-64
2022/03/16 07:47:07;;;;;;;53.38;32.95;;;5.70;99.90;;;;;;4989574;28;20055;-64
2022/03/16 07:49:34;;;;;;;49.22;32.17;;;5.80;99.90;;;;;;4974258;28;20348;-65
2022/03/16 07:51:59;;;;;;;46.38;32.83;;;5.90;99.90;;;;;;4975016;28;20468;-63
2022/03/16 07:54:25;;;;;;;48.70;31.83;;;6.00;99.90;;;;;;4975375;28;20190;-63
2022/03/16 07:56:53;;;;;;;43.22;30.85;;;6.00;99.90;;;;;;4973638;28;20057;-64
2022/03/16 07:59:19;;;;;;;43.83;29.48;;;6.10;99.90;;;;;;4975184;28;20065;-65
2022/03/16 08:01:44;;;;;;;43.92;29.75;;;6.20;99.90;;;;;;4975350;28;20054;-65
2022/03/16 08:04:10;;;;;;;41.67;28.95;;;6.30;99.90;;;;;;4973477;28;20483;-65
2022/03/16 08:06:36;;;;;;;39.95;28.40;;;6.40;99.90;;;;;;4969840;28;20055;-65
2022/03/16 08:09:01;;;;;;;36.97;26.80;;;6.50;99.90;;;;;;4974192;28;20137;-64
2022/03/16 08:11:27;;;;;;;37.08;27.10;;;6.60;99.90;;;;;;4971570;28;20065;-63
2022/03/16 08:13:52;;;;;;;36.67;26.92;;;6.70;99.90;;;;;;4971142;28;20129;-63
2022/03/16 08:16:18;;;;;;;38.05;27.60;;;6.80;99.90;;;;;;4967276;28;20122;-64
2022/03/16 08:18:44;;;;;;;37.50;27.05;;;6.90;99.90;;;;;;4955206;28;20066;-64
2022/03/16 08:21:11;;;;;;;41.30;27.63;;;7.10;99.90;;;;;;4960011;28;20046;-65
2022/03/16 08:23:37;;;;;;;34.28;25.45;;;7.20;99.90;;;;;;4973715;28;20124;-65
2022/03/16 08:26:03;;;;;;;34.72;25.85;;;7.30;99.90;;;;;;4973011;28;20081;-65
2022/03/16 08:28:28;;;;;;;36.78;26.10;;;7.40;99.90;;;;;;4974406;28;20061;-65
2022/03/16 08:30:54;;;;;;;33.53;24.48;;;7.50;99.90;;;;;;4971511;28;20209;-65
2022/03/16 08:33:19;;;;;;;33.17;24.75;;;7.60;99.90;;;;;;4954405;28;20484;-64
2022/03/16 08:35:46;;;;;;;32.85;24.98;;;7.70;99.90;;;;;;4954339;29;20047;-65
2022/03/16 08:38:11;;;;;;;37.97;26.52;;;7.80;99.90;;;;;;4955049;28;20506;-65
2022/03/16 08:40:37;;;;;;;33.65;25.60;;;7.90;99.90;;;;;;4954653;28;20047;-65
2022/03/16 08:43:03;;;;;;;34.10;24.77;;;8.00;99.90;;;;;;4954375;28;20125;-64
2022/03/16 08:45:29;;;;;;;33.08;24.30;;;8.10;99.90;;;;;;4953957;28;20048;-66
2022/03/16 08:47:54;;;;;;;32.20;24.52;;;8.20;99.90;;;;;;4970483;28;20055;-65
2022/03/16 08:50:20;;;;;;;32.72;23.98;;;8.30;99.90;;;;;;4973106;28;20105;-65
2022/03/16 08:52:47;;;;;;;27.08;22.10;;;8.40;99.90;;;;;;4989396;28;20046;-65
2022/03/16 08:55:15;;;;;;;32.38;22.60;;;8.60;99.90;;;;;;4973318;28;20055;-65
2022/03/16 08:57:43;;;;;;;32.13;23.23;;;8.70;99.90;;;;;;4974170;28;20063;-66
2022/03/16 09:00:15;;;;;;;29.33;23.30;;;8.90;99.90;;;;;;4959257;28;20106;-65
2022/03/16 09:02:41;;;;;;;;;;;9.00;99.90;;;;;;4954068;29;20043;-65
2022/03/16 09:05:07;;;;;;;31.98;23.33;;;9.10;99.90;;;;;;4953597;28;19922;-65
2022/03/16 09:07:33;;;;;;;31.27;22.58;;;9.20;99.90;;;;;;4954200;28;20063;-65
2022/03/16 09:09:58;;;;;;;30.88;22.58;;;9.30;99.90;;;;;;4953833;29;20509;-65
2022/03/16 09:12:24;;;;;;;31.77;21.92;;;9.50;99.90;;;;;;4937282;29;20051;-64
2022/03/16 09:14:50;;;;;;;30.77;22.63;;;9.60;99.90;;;;;;4954614;28;20059;-66
2022/03/16 09:17:17;;;;;;;31.65;21.10;;;9.70;99.90;;;;;;4970331;28;20047;-65
2022/03/16 09:19:43;;;;;;;30.88;20.90;;;9.90;99.90;;;;;;4973258;28;20062;-65
2022/03/16 09:22:09;;;;;;;28.55;19.83;;;10.00;99.90;;;;;;4973630;28;20051;-65
2022/03/16 09:24:38;;;;;;;26.63;18.60;;;10.10;99.90;;;;;;4973192;28;20069;-64
2022/03/16 09:27:04;;;;;;;23.38;17.88;;;10.20;99.90;;;;;;4968659;28;20057;-65
2022/03/16 09:29:29;;;;;;;23.40;16.85;;;10.30;99.90;;;;;;4973028;28;20054;-64
2022/03/16 09:31:55;;;;;;;24.15;16.58;;;10.40;99.90;;;;;;4988777;28;20051;-65
2022/03/16 09:34:21;;;;;;;22.25;15.23;;;10.50;99.90;;;;;;4955536;28;20055;-66
2022/03/16 09:36:47;;;;;;;22.38;16.70;;;10.60;99.90;;;;;;4970320;28;20056;-64
2022/03/16 09:39:13;;;;;;;19.23;15.40;;;10.60;99.90;;;;;;4953407;29;20062;-64
2022/03/16 09:41:39;;;;;;;20.63;15.63;;;10.70;99.90;;;;;;4966754;28;20047;-65
2022/03/16 09:44:06;;;;;;;21.48;15.27;;;10.80;99.90;;;;;;4972601;28;20113;-64
2022/03/16 09:46:36;;;;;;;22.05;16.10;;;10.90;99.90;;;;;;4973855;28;20066;-65
2022/03/16 09:49:04;;;;;;;20.33;15.02;;;11.00;99.90;;;;;;4959909;28;20066;-64
2022/03/16 09:51:35;;;;;;;20.67;14.25;;;11.00;99.90;;;;;;4954685;28;20167;-64
2022/03/16 09:54:02;;;;;;;20.23;14.25;;;11.20;99.90;;;;;;4953522;29;20059;-64
2022/03/16 09:56:27;;;;;;;20.42;14.27;;;11.20;99.90;;;;;;4952881;29;20117;-65
2022/03/16 09:58:53;;;;;;;19.73;13.85;;;11.30;99.90;;;;;;4953443;28;20099;-64
2022/03/16 10:01:19;;;;;;;18.80;14.15;;;11.40;99.90;;;;;;4984543;28;20063;-63
2022/03/16 10:03:49;;;;;;;18.65;13.80;;;11.50;99.90;;;;;;4976322;28;20063;-66
2022/03/16 10:06:17;;;;;;;18.42;13.63;;;11.70;99.90;;;;;;4976731;28;20062;-65
2022/03/16 10:13:13;;;;;;;19.38;14.27;;;11.80;99.90;;;;;;4977338;28;20047;-65
2022/03/16 10:14:16;;;;;;;18.77;14.07;;;11.90;99.90;;;;;;4975050;28;20415;-65
2022/03/16 10:19:49;;;;;;;19.42;15.13;;;12.00;99.90;;;;;;4991321;28;20490;-64
2022/03/16 10:22:26;;;;;;;18.73;14.15;;;12.10;99.90;;;;;;4974833;28;20055;-65
2022/03/16 10:25:02;;;;;;;18.92;13.88;;;12.20;99.90;;;;;;4975941;28;20062;-65
2022/03/16 10:27:28;;;;;;;17.70;13.80;;;12.30;99.90;;;;;;4976881;28;20074;-64
2022/03/16 10:29:54;;;;;;;21.17;14.73;;;12.40;99.90;;;;;;4975987;28;20384;-65
2022/03/16 10:32:22;;;;;;;19.15;14.70;;;12.40;99.90;;;;;;4975917;28;20051;-66
2022/03/16 10:34:52;;;;;;;20.33;15.27;;;12.40;99.90;;;;;;4975656;28;20054;-65
2022/03/16 10:37:20;;;;;;;20.25;13.52;;;12.40;99.90;;;;;;4974627;28;20062;-65
2022/03/16 10:39:49;;;;;;;19.35;13.88;;;12.30;99.90;;;;;;4992364;28;20125;-65
2022/03/16 10:48:23;;;;;;;19.23;13.50;;;12.40;99.90;;;;;;4955519;28;20051;-64
2022/03/16 10:50:55;;;;;;;17.40;12.95;;;12.60;99.90;;;;;;4957451;28;20075;-65
2022/03/16 10:53:25;;;;;;;17.98;13.73;;;12.70;99.90;;;;;;4957969;28;20047;-66
2022/03/16 10:55:51;;;;;;;18.23;14.32;;;12.70;99.90;;;;;;4960345;28;20134;-65
2022/03/16 10:58:19;;;;;;;19.88;13.45;;;12.80;99.90;;;;;;4955231;29;20579;-65
2022/03/16 11:00:45;;;;;;;16.25;12.90;;;12.90;99.90;;;;;;4956021;29;20381;-65
2022/03/16 11:03:17;;;;;;;18.50;14.13;;;13.00;99.90;;;;;;4955718;29;20074;-64
2022/03/16 11:05:43;;;;;;;18.95;13.43;;;13.20;99.90;;;;;;4958485;28;20047;-65
2022/03/16 11:08:10;;;;;;;19.02;14.23;;;13.30;99.90;;;;;;4974616;28;20058;-64
2022/03/16 11:10:40;;;;;;;17.98;13.57;;;13.40;99.90;;;;;;4961569;28;20070;-65
2022/03/16 11:15:52;;;;;;;17.95;11.98;;;13.60;99.90;;;;;;4956748;28;20483;-66
2022/03/16 11:18:19;;;;;;;17.30;11.00;;;13.70;99.90;;;;;;4968290;28;20043;-64
2022/03/16 11:20:48;;;;;;;14.57;10.98;;;13.80;99.90;;;;;;4961505;28;20073;-67
2022/03/16 11:26:24;;;;;;;15.77;10.95;;;14.00;99.90;;;;;;4966473;28;20039;-64
2022/03/16 11:29:22;;;;;;;18.40;11.48;;;13.90;99.90;;;;;;4963097;28;20108;-66
2022/03/16 11:31:48;;;;;;;14.40;10.38;;;13.80;99.90;;;;;;4990919;28;20093;-65
2022/03/16 11:34:21;;;;;;;14.32;9.48;;;13.90;99.90;;;;;;4974970;28;20054;-66
2022/03/16 11:36:59;;;;;;;14.32;10.88;;;14.00;99.90;;;;;;4975201;28;20058;-67
2022/03/16 11:39:25;;;;;;;15.32;11.40;;;14.10;99.90;;;;;;4974063;28;20062;-66
2022/03/16 11:41:57;;;;;;;14.40;11.07;;;14.20;99.90;;;;;;4972020;28;20051;-67
2022/03/16 11:44:25;;;;;;;14.40;11.23;;;14.30;93.90;;;;;;4974904;28;20050;-66
2022/03/16 11:47:18;;;;;;;16.20;11.27;;;14.20;99.90;;;;;;4971199;28;20066;-65
2022/03/16 11:50:03;;;;;;;;;;;14.30;99.90;;;;;;4974691;28;20102;-65
2022/03/16 11:52:59;;;;;;;17.63;11.50;;;14.30;99.90;;;;;;4973734;28;19977;-67
2022/03/16 11:55:46;;;;;;;15.80;12.02;;;14.40;99.90;;;;;;4970549;28;20118;-65
2022/03/16 11:58:25;;;;;;;16.58;11.95;;;14.40;98.40;;;;;;4955705;28;20057;-65
2022/03/16 12:00:52;;;;;;;14.90;11.48;;;14.50;99.30;;;;;;4962997;28;20142;-66
2022/03/16 12:03:21;;;;;;;19.65;12.07;;;14.50;99.90;;;;;;4973745;28;20502;-66
2022/03/16 12:05:59;;;;;;;16.13;11.57;;;14.60;99.90;;;;;;4966803;28;20411;-66
2022/03/16 12:08:30;;;;;;;16.08;12.43;;;14.60;99.90;;;;;;4954578;28;20121;-65
2022/03/16 12:12:51;;;;;;;15.50;11.98;;;14.60;95.70;;;;;;4955782;28;20511;-65
2022/03/16 12:13:45;;;;;;;16.75;12.32;;;14.60;99.90;;;;;;4955876;29;20090;-64
2022/03/16 12:16:17;;;;;;;17.48;11.73;;;14.60;99.90;;;;;;4956196;28;20054;-65
2022/03/16 12:18:46;;;;;;;16.05;11.75;;;14.60;99.90;;;;;;4955624;28;20058;-65
2022/03/16 12:21:13;;;;;;;16.58;11.70;;;14.70;99.90;;;;;;4959251;28;20046;-67
2022/03/16 12:23:41;;;;;;;18.73;12.40;;;14.70;99.90;;;;;;4972870;28;20545;-65
2022/03/16 12:26:07;;;;;;;19.08;12.35;;;14.70;99.50;;;;;;4973921;28;20126;-65
2022/03/16 12:31:26;;;;;;;17.85;11.82;;;14.70;99.90;;;;;;5043164;23;20049;-64
2022/03/16 12:33:55;;;;;;;17.67;12.63;;;14.70;99.40;;;;;;5012360;28;20049;-63
2022/03/16 12:36:28;;;;;;;20.00;13.38;;;14.80;95.70;;;;;;5011262;28;20045;-64
2022/03/16 12:39:09;;;;;;;16.27;13.30;;;14.80;93.40;;;;;;5012424;28;20121;-65
2022/03/16 12:44:22;;;;;;;16.83;13.10;;;14.80;98.10;;;;;;5012378;28;20085;-65
2022/03/16 12:47:06;;;;;;;17.33;12.80;;;14.80;95.20;;;;;;5012155;28;20104;-63
2022/03/16 12:49:39;;;;;;;13.82;11.20;;;14.90;84.20;;;;;;5013145;28;20104;-65
2022/03/16 12:52:05;;;;;;;15.43;11.48;;;14.90;83.30;;;;;;5012638;28;20054;-64
2022/03/16 12:54:33;;;;;;;16.95;12.10;;;15.00;83.20;;;;;;5012987;28;20072;-65
2022/03/16 12:57:06;;;;;;;15.48;11.50;;;15.00;80.80;;;;;;5007451;28;20069;-64
2022/03/16 12:59:38;;;;;;;17.85;11.55;;;15.10;79.90;;;;;;4992245;28;20054;-64